createdAt,value
2019-03-08T00:01:37.884Z,93007.14
2019-03-08T00:04:10.824Z,93012.96
2019-03-08T00:06:43.603Z,93016.56
2019-03-08T00:09:16.523Z,93017.94
2019-03-08T00:11:49.364Z,93034.70
2019-03-08T00:14:22.403Z,93042.17
2019-03-08T00:16:55.485Z,93043.22
2019-03-08T00:19:28.923Z,93019.55
2019-03-08T00:22:01.642Z,93026.95
2019-03-08T00:24:34.404Z,93038.67
2019-03-08T00:27:07.537Z,93040.83
2019-03-08T00:29:40.386Z,93052.50
2019-03-08T00:32:15.005Z,93055.22
2019-03-08T00:34:47.964Z,93040.98
2019-03-08T00:37:21.611Z,93047.73
2019-03-08T00:39:54.485Z,93043.68
2019-03-08T00:42:27.723Z,93040.75
2019-03-08T00:45:00.851Z,93041.48
2019-03-08T00:47:33.743Z,93052.58
2019-03-08T00:50:06.626Z,93043.41
2019-03-08T00:52:39.744Z,93048.66
2019-03-08T00:55:12.763Z,93055.43
2019-03-08T00:57:45.563Z,93052.64
2019-03-08T01:00:18.686Z,93058.18
2019-03-08T01:02:51.523Z,93057.37
2019-03-08T01:05:24.989Z,93055.54
2019-03-08T01:07:58.463Z,93060.28
2019-03-08T01:10:32.044Z,93066.59
2019-03-08T01:13:05.346Z,93068.62
2019-03-08T01:15:38.444Z,93065.55
2019-03-08T01:18:12.126Z,93066.41
2019-03-08T01:20:45.143Z,93049.47
2019-03-08T01:23:18.143Z,93053.61
2019-03-08T01:25:51.403Z,93052.30
2019-03-08T01:28:24.284Z,93061.38
2019-03-08T01:30:57.303Z,93056.09
2019-03-08T01:33:30.023Z,93060.59
2019-03-08T01:36:02.834Z,93052.15
2019-03-08T01:38:35.723Z,93053.98
2019-03-08T01:41:08.604Z,93059.51
2019-03-08T01:43:42.285Z,93052.09
2019-03-08T01:46:15.324Z,93037.06
2019-03-08T01:48:48.123Z,93051.63
2019-03-08T01:51:21.323Z,93065.09
2019-03-08T01:53:55.383Z,93047.92
2019-03-08T01:56:28.633Z,93055.59
2019-03-08T01:59:01.437Z,93063.74
2019-03-08T02:01:34.405Z,93053.46
2019-03-08T02:04:07.204Z,93036.30
2019-03-08T02:06:40.223Z,93047.41
2019-03-08T02:09:12.985Z,93061.38
2019-03-08T02:11:46.283Z,93057.13
2019-03-08T02:14:19.144Z,93044.23
2019-03-08T02:16:51.964Z,93028.13
2019-03-08T02:19:25.326Z,93041.86
2019-03-08T02:21:58.143Z,93056.91
2019-03-08T02:24:30.923Z,93033.66
2019-03-08T02:27:07.383Z,93056.12
2019-03-08T02:29:40.425Z,93055.55
2019-03-08T02:32:13.513Z,93030.77
2019-03-08T02:34:46.364Z,93032.09
2019-03-08T02:37:19.883Z,93050.57
2019-03-08T02:39:52.664Z,93039.75
2019-03-08T02:42:25.663Z,93047.58
2019-03-08T02:44:58.764Z,93059.28
2019-03-08T02:47:31.807Z,93056.51
2019-03-08T02:50:04.724Z,93056.55
2019-03-08T02:52:37.706Z,93060.41
2019-03-08T02:55:10.684Z,93059.09
2019-03-08T02:57:43.743Z,93063.25
2019-03-08T03:00:18.623Z,93071.34
2019-03-08T03:02:51.223Z,93069.09
2019-03-08T03:05:24.504Z,93069.09
2019-03-08T03:07:57.584Z,93069.05
2019-03-08T03:10:30.724Z,93071.11
2019-03-08T03:13:03.513Z,93074.05
2019-03-08T03:15:36.346Z,93076.73
2019-03-08T03:18:09.185Z,93078.09
2019-03-08T03:20:42.791Z,93076.73
2019-03-08T03:23:15.743Z,93081.55
2019-03-08T03:25:48.723Z,93093.02
2019-03-08T03:28:21.663Z,93082.48
2019-03-08T03:30:54.545Z,93084.51
2019-03-08T03:33:29.628Z,93076.95
2019-03-08T03:36:02.397Z,93084.61
2019-03-08T03:38:35.343Z,93082.08
2019-03-08T03:41:08.204Z,93077.03
2019-03-08T03:43:41.147Z,93082.65
2019-03-08T03:46:14.544Z,93082.02
2019-03-08T03:48:47.323Z,93083.59
2019-03-08T03:51:20.223Z,93095.33
2019-03-08T03:53:53.744Z,93103.64
2019-03-08T03:56:27.143Z,93104.61
2019-03-08T03:58:59.964Z,93097.61
2019-03-08T04:01:34.327Z,93104.79
2019-03-08T04:04:08.323Z,93108.41
2019-03-08T04:06:41.185Z,93106.72
2019-03-08T04:09:13.946Z,93102.44
2019-03-08T04:11:47.064Z,93100.67
2019-03-08T04:14:19.965Z,93104.47
2019-03-08T04:16:52.983Z,93097.88
2019-03-08T04:19:25.883Z,93106.13
2019-03-08T04:21:58.765Z,93101.90
2019-03-08T04:24:31.964Z,93113.58
2019-03-08T04:27:04.944Z,93122.09
2019-03-08T04:29:38.063Z,93123.44
2019-03-08T04:32:11.513Z,93125.25
2019-03-08T04:34:44.383Z,93129.02
2019-03-08T04:37:17.803Z,93129.19
2019-03-08T04:39:50.944Z,93130.83
2019-03-08T04:42:23.745Z,93132.91
2019-03-08T04:44:57.003Z,93142.08
2019-03-08T04:47:30.283Z,93145.97
2019-03-08T04:50:02.944Z,93147.28
2019-03-08T04:52:35.844Z,93147.20
2019-03-08T04:55:08.924Z,93150.26
2019-03-08T04:57:41.785Z,93150.11
2019-03-08T05:00:14.609Z,93152.85
2019-03-08T05:02:47.394Z,93152.81
2019-03-08T05:05:20.663Z,93162.39
2019-03-08T05:07:54.263Z,93154.82
2019-03-08T05:10:28.245Z,93155.09
2019-03-08T05:13:01.244Z,93158.19
2019-03-08T05:15:34.124Z,93159.48
2019-03-08T05:18:07.184Z,93160.02
2019-03-08T05:20:40.405Z,93164.35
2019-03-08T05:23:14.064Z,93168.80
2019-03-08T05:25:47.983Z,93169.84
2019-03-08T05:28:20.824Z,93173.63
2019-03-08T05:30:53.723Z,93183.30
2019-03-08T05:33:26.503Z,93182.87
2019-03-08T05:35:59.623Z,93187.70
2019-03-08T05:38:32.643Z,93187.09
2019-03-08T05:41:05.603Z,93182.83
2019-03-08T05:43:38.871Z,93183.36
2019-03-08T05:46:11.783Z,93187.63
2019-03-08T05:48:44.804Z,93181.81
2019-03-08T05:51:17.764Z,93183.41
2019-03-08T05:53:50.686Z,93187.11
2019-03-08T05:56:23.644Z,93191.33
2019-03-08T05:58:56.603Z,93195.61
2019-03-08T06:01:29.603Z,93203.33
2019-03-08T06:04:02.679Z,93202.73
2019-03-08T06:06:36.171Z,93215.53
2019-03-08T06:09:09.004Z,93203.72
2019-03-08T06:11:41.823Z,93208.45
2019-03-08T06:14:14.812Z,93212.02
2019-03-08T06:16:47.685Z,93219.33
2019-03-08T06:19:20.504Z,93218.13
2019-03-08T06:21:53.387Z,93217.96
2019-03-08T06:24:26.253Z,93224.27
2019-03-08T06:26:59.104Z,93223.18
2019-03-08T06:29:32.623Z,93234.42
2019-03-08T06:32:05.977Z,93236.02
2019-03-08T06:34:39.052Z,93234.12
2019-03-08T06:37:11.983Z,93239.45
2019-03-08T06:39:46.563Z,93239.89
2019-03-08T06:42:20.143Z,93241.82
2019-03-08T06:44:53.747Z,93248.66
2019-03-08T06:47:27.084Z,93264.30
2019-03-08T06:50:00.026Z,93267.92
2019-03-08T06:52:33.029Z,93263.10
2019-03-08T06:55:05.884Z,93263.19
2019-03-08T06:57:38.704Z,93263.77
2019-03-08T07:00:13.123Z,93268.72
2019-03-08T07:02:46.922Z,93272.88
2019-03-08T07:05:19.683Z,93278.73
2019-03-08T07:07:52.547Z,93276.65
2019-03-08T07:10:25.765Z,93276.69
2019-03-08T07:13:03.411Z,93281.19
2019-03-08T07:15:33.484Z,93280.41
2019-03-08T07:18:12.710Z,93283.89
2019-03-08T07:20:43.604Z,93290.56
2019-03-08T07:23:27.573Z,93301.09
2019-03-08T07:25:57.123Z,93308.53
2019-03-08T07:28:46.784Z,93297.72
2019-03-08T07:31:27.043Z,93299.25
2019-03-08T07:33:59.643Z,93291.42
2019-03-08T07:36:52.643Z,93301.96
2019-03-08T07:39:43.563Z,93295.60
2019-03-08T07:42:24.849Z,93301.74
2019-03-08T07:45:15.264Z,93300.98
2019-03-08T07:48:05.645Z,93299.91
2019-03-08T07:50:44.265Z,93316.02
2019-03-08T07:53:33.785Z,93318.26
2019-03-08T07:56:06.665Z,93316.88
2019-03-08T07:58:47.043Z,93314.91
2019-03-08T08:01:21.465Z,93322.43
2019-03-08T08:03:58.803Z,93331.78
2019-03-08T08:06:36.243Z,93330.08
2019-03-08T08:09:10.883Z,93329.00
2019-03-08T08:11:46.383Z,93340.31
2019-03-08T08:14:26.570Z,93336.58
2019-03-08T08:17:11.172Z,93330.54
2019-03-08T08:19:59.023Z,93339.55
2019-03-08T08:22:43.171Z,93327.94
2019-03-08T08:25:36.940Z,93328.42
2019-03-08T08:28:19.067Z,93328.47
2019-03-08T08:31:05.485Z,93328.72
2019-03-08T08:33:52.143Z,93331.92
2019-03-08T08:36:38.864Z,93329.22
2019-03-08T08:39:13.323Z,93323.64
2019-03-08T08:42:02.777Z,93339.48
2019-03-08T08:44:53.132Z,93341.80
2019-03-08T08:47:27.744Z,93345.26
2019-03-08T08:50:18.483Z,93346.95
2019-03-08T08:53:02.594Z,93353.03
2019-03-08T08:55:35.463Z,93361.31
2019-03-08T08:58:22.411Z,93361.84
2019-03-08T09:01:02.470Z,93360.72
2019-03-08T09:03:49.043Z,93368.45
2019-03-08T09:06:23.484Z,93364.30
2019-03-08T09:09:09.851Z,93375.06
2019-03-08T09:11:51.949Z,93380.81
2019-03-08T09:14:29.271Z,93383.01
2019-03-08T09:17:05.663Z,93385.84
2019-03-08T09:19:46.023Z,93392.27
2019-03-08T09:22:22.983Z,93390.15
2019-03-08T09:24:57.334Z,93392.38
2019-03-08T09:27:32.224Z,93395.79
2019-03-08T09:30:09.327Z,93391.03
2019-03-08T09:32:59.142Z,93389.83
2019-03-08T09:35:30.023Z,93399.33
2019-03-08T09:38:07.363Z,93404.73
2019-03-08T09:40:45.723Z,93403.86
2019-03-08T09:43:20.183Z,93406.73
2019-03-08T09:46:10.845Z,93417.66
2019-03-08T09:49:00.523Z,93421.23
2019-03-08T09:51:35.086Z,93410.78
2019-03-08T09:54:09.743Z,93420.89
2019-03-08T09:56:46.743Z,93417.73
2019-03-08T09:59:22.243Z,93427.03
2019-03-08T10:01:59.363Z,93437.14
2019-03-08T10:04:45.803Z,93440.28
2019-03-08T10:07:20.403Z,93434.92
2019-03-08T10:10:11.170Z,93437.36
2019-03-08T10:12:44.143Z,93433.00
2019-03-08T10:15:33.803Z,93440.03
2019-03-08T10:18:20.212Z,93443.28
2019-03-08T10:20:54.763Z,93438.81
2019-03-08T10:23:33.183Z,93446.66
2019-03-08T10:26:08.763Z,93443.50
2019-03-08T10:28:49.083Z,93445.53
2019-03-08T10:31:23.762Z,93447.95
2019-03-08T10:34:07.367Z,93436.43
2019-03-08T10:36:47.984Z,93438.56
2019-03-08T10:39:35.504Z,93447.23
2019-03-08T10:42:16.683Z,93288.84
2019-03-08T10:44:51.203Z,93453.89
2019-03-08T10:47:28.403Z,93455.50
2019-03-08T10:50:02.702Z,93454.95
2019-03-08T10:52:43.285Z,93462.30
2019-03-08T10:55:24.886Z,93456.00
2019-03-08T10:58:02.002Z,93457.77
2019-03-08T11:00:45.764Z,93464.33
2019-03-08T11:03:22.923Z,93459.54
2019-03-08T11:06:06.144Z,93466.50
2019-03-08T11:08:44.784Z,93468.38
2019-03-08T11:11:22.124Z,93470.59
2019-03-08T11:14:12.843Z,93459.67
2019-03-08T11:16:59.483Z,93459.45
2019-03-08T11:19:45.912Z,93459.66
2019-03-08T11:22:35.564Z,93460.68
2019-03-08T11:25:15.544Z,93463.95
2019-03-08T11:27:55.866Z,93456.55
2019-03-08T11:30:39.524Z,93469.73
2019-03-08T11:33:22.905Z,93462.86
2019-03-08T11:36:12.483Z,93465.24
2019-03-08T11:38:49.883Z,93464.48
2019-03-08T11:41:27.444Z,93462.55
2019-03-08T11:44:02.003Z,93459.70
2019-03-08T11:46:36.343Z,93457.08
2019-03-08T11:49:10.803Z,93451.80
2019-03-08T11:51:45.243Z,93449.66
2019-03-08T11:54:19.455Z,93452.66
2019-03-08T11:57:09.203Z,93453.19
2019-03-08T12:00:00.003Z,93451.43
2019-03-08T12:02:40.363Z,93449.14
2019-03-08T12:05:12.865Z,93454.95
2019-03-08T12:08:04.163Z,93454.42
2019-03-08T12:10:36.578Z,93454.96
2019-03-08T12:13:14.003Z,93457.89
2019-03-08T12:15:57.566Z,93454.64
2019-03-08T12:18:30.144Z,93462.91
2019-03-08T12:21:10.850Z,93461.72
2019-03-08T12:24:03.524Z,93457.58
2019-03-08T12:26:56.967Z,93459.44
2019-03-08T12:29:36.183Z,93457.78
2019-03-08T12:32:10.604Z,93456.94
2019-03-08T12:34:47.786Z,93455.89
2019-03-08T12:37:22.234Z,93449.41
2019-03-08T12:39:56.683Z,93451.66
2019-03-08T12:42:40.143Z,93455.41
2019-03-08T12:45:31.023Z,93452.02
2019-03-08T12:48:24.097Z,93449.78
2019-03-08T12:51:10.123Z,93444.04
2019-03-08T12:53:48.385Z,93441.74
2019-03-08T12:56:39.083Z,93444.21
2019-03-08T12:59:19.744Z,93430.75
2019-03-08T13:01:54.243Z,93437.25
2019-03-08T13:04:31.391Z,93430.78
2019-03-08T13:07:07.174Z,93429.27
2019-03-08T13:09:42.724Z,93436.47
2019-03-08T13:12:15.626Z,93430.83
2019-03-08T13:14:48.623Z,93436.34
2019-03-08T13:17:22.623Z,93436.16
2019-03-08T13:19:55.844Z,93438.26
2019-03-08T13:22:28.923Z,93448.20
2019-03-08T13:25:01.767Z,93445.27
2019-03-08T13:27:34.663Z,93447.54
2019-03-08T13:30:07.491Z,93453.77
2019-03-08T13:32:40.424Z,93455.71
2019-03-08T13:35:13.603Z,93458.41
2019-03-08T13:37:46.583Z,93457.47
2019-03-08T13:40:19.644Z,93453.83
2019-03-08T13:42:52.525Z,93455.09
2019-03-08T13:45:25.364Z,93452.69
2019-03-08T13:47:58.525Z,93454.60
2019-03-08T13:50:31.884Z,93448.41
2019-03-08T13:53:04.735Z,93454.31
2019-03-08T13:55:37.623Z,93440.44
2019-03-08T13:58:10.503Z,93446.95
2019-03-08T14:00:43.463Z,93450.19
2019-03-08T14:03:16.684Z,93450.19
2019-03-08T14:05:49.523Z,93447.81
2019-03-08T14:08:22.391Z,93452.59
2019-03-08T14:10:55.166Z,93449.15
2019-03-08T14:13:28.007Z,93447.02
2019-03-08T14:16:00.843Z,93450.41
2019-03-08T14:18:33.883Z,93450.17
2019-03-08T14:21:06.684Z,93448.59
2019-03-08T14:23:40.744Z,93447.53
2019-03-08T14:26:13.559Z,93444.59
2019-03-08T14:28:46.783Z,93446.55
2019-03-08T14:31:29.964Z,93453.66
2019-03-08T14:34:03.084Z,93452.55
2019-03-08T14:36:39.273Z,93462.03
2019-03-08T14:39:10.903Z,93453.10
2019-03-08T14:41:48.464Z,93449.80
2019-03-08T14:44:22.870Z,93456.80
2019-03-08T14:46:57.593Z,93461.50
2019-03-08T14:49:30.806Z,93466.38
2019-03-08T14:52:03.534Z,93461.34
2019-03-08T14:54:36.485Z,93472.55
2019-03-08T14:57:09.356Z,93462.97
2019-03-08T14:59:43.623Z,93464.95
2019-03-08T15:02:16.963Z,93465.07
2019-03-08T15:04:49.883Z,93468.34
2019-03-08T15:07:22.608Z,93465.00
2019-03-08T15:09:55.589Z,93465.28
2019-03-08T15:12:32.930Z,93461.02
2019-03-08T15:15:03.307Z,93467.67
2019-03-08T15:17:36.530Z,93461.83
2019-03-08T15:20:15.203Z,93462.63
2019-03-08T15:22:44.651Z,93468.98
2019-03-08T15:25:17.749Z,93472.17
2019-03-08T15:27:50.894Z,93474.28
2019-03-08T15:30:23.897Z,93463.97
2019-03-08T15:32:56.712Z,93471.11
2019-03-08T15:35:29.628Z,93472.90
2019-03-08T15:38:02.448Z,93476.64
2019-03-08T15:40:35.587Z,93472.64
2019-03-08T15:43:09.799Z,93478.73
2019-03-08T15:45:44.638Z,93479.73
2019-03-08T15:48:17.812Z,93480.27
2019-03-08T15:50:51.230Z,93477.38
2019-03-08T15:53:24.169Z,93475.77
2019-03-08T15:55:57.799Z,93477.63
2019-03-08T15:58:31.698Z,93476.38
2019-03-08T16:01:04.990Z,93478.24
2019-03-08T16:03:38.259Z,93471.88
2019-03-08T16:06:11.169Z,93474.53
2019-03-08T16:08:44.069Z,93487.27
2019-03-08T16:11:17.649Z,93486.73
2019-03-08T16:13:50.678Z,93494.69
2019-03-08T16:16:24.051Z,93492.03
2019-03-08T16:18:57.049Z,93495.95
2019-03-08T16:21:30.209Z,93493.77
2019-03-08T16:24:02.984Z,93488.93
2019-03-08T16:26:36.049Z,93487.29
2019-03-08T16:29:09.429Z,93493.62
2019-03-08T16:31:43.803Z,93493.67
2019-03-08T16:34:17.327Z,93491.78
2019-03-08T16:36:51.910Z,93492.84
2019-03-08T16:39:29.488Z,93493.09
2019-03-08T16:42:08.226Z,93496.54
2019-03-08T16:44:48.468Z,93499.13
2019-03-08T16:47:31.908Z,93500.69
2019-03-08T16:50:15.247Z,93503.14
2019-03-08T16:52:49.967Z,93509.00
2019-03-08T16:55:42.710Z,93514.08
2019-03-08T16:58:17.187Z,93508.38
2019-03-08T17:00:54.467Z,93512.63
2019-03-08T17:03:28.994Z,93511.47
2019-03-08T17:06:07.147Z,93511.94
2019-03-08T17:08:57.989Z,93515.67
2019-03-08T17:11:35.348Z,93515.97
2019-03-08T17:14:22.289Z,93522.22
2019-03-08T17:16:59.868Z,93523.83
2019-03-08T17:19:47.427Z,93525.16
2019-03-08T17:22:26.368Z,93529.39
2019-03-08T17:25:06.670Z,93538.17
2019-03-08T17:27:42.348Z,93541.44
2019-03-08T17:30:16.739Z,93540.28
2019-03-08T17:32:51.428Z,93539.58
2019-03-08T17:35:36.987Z,93539.06
2019-03-08T17:38:11.547Z,93542.80
2019-03-08T17:40:48.947Z,93546.75
2019-03-08T17:43:29.627Z,93540.60
2019-03-08T17:46:10.048Z,93537.16
2019-03-08T17:48:58.090Z,93541.50
2019-03-08T17:51:30.827Z,93552.80
2019-03-08T17:54:11.247Z,93556.27
2019-03-08T17:56:51.807Z,93557.05
2019-03-08T17:59:35.267Z,93562.92
2019-03-08T18:02:10.129Z,93572.39
2019-03-08T18:04:48.708Z,93576.52
2019-03-08T18:07:25.839Z,93584.33
2019-03-08T18:10:06.108Z,93593.34
2019-03-08T18:12:59.628Z,93589.30
2019-03-08T18:15:36.607Z,93585.98
2019-03-08T18:18:11.827Z,93581.64
2019-03-08T18:20:56.907Z,93588.34
2019-03-08T18:23:36.988Z,93596.08
2019-03-08T18:26:09.828Z,93604.38
2019-03-08T18:28:59.849Z,93601.88
2019-03-08T18:31:44.630Z,93598.09
2019-03-08T18:34:31.488Z,93604.31
2019-03-08T18:37:06.327Z,93616.56
2019-03-08T18:39:49.748Z,93618.20
2019-03-08T18:42:40.067Z,93619.39
2019-03-08T18:45:24.669Z,93625.98
2019-03-08T18:47:59.087Z,93628.25
2019-03-08T18:50:51.612Z,93629.02
2019-03-08T18:53:26.178Z,93643.65
2019-03-08T18:56:06.816Z,93644.23
2019-03-08T18:58:50.257Z,93658.52
2019-03-08T19:01:33.937Z,93651.70
2019-03-08T19:04:13.949Z,93652.36
2019-03-08T19:06:48.676Z,93654.58
2019-03-08T19:09:30.207Z,93659.02
2019-03-08T19:12:21.269Z,93662.58
2019-03-08T19:15:13.007Z,93669.16
2019-03-08T19:17:47.527Z,93674.92
2019-03-08T19:20:36.883Z,93676.80
2019-03-08T19:23:15.020Z,93678.12
2019-03-08T19:25:50.470Z,93687.64
2019-03-08T19:28:38.508Z,93688.27
2019-03-08T19:31:19.016Z,93685.48
2019-03-08T19:34:03.808Z,93690.38
2019-03-08T19:36:48.467Z,93698.06
2019-03-08T19:39:24.207Z,93705.69
2019-03-08T19:42:04.915Z,93705.39
2019-03-08T19:44:42.449Z,93710.56
2019-03-08T19:47:15.068Z,93718.41
2019-03-08T19:50:04.634Z,93713.80
2019-03-08T19:52:43.299Z,93713.14
2019-03-08T19:55:17.819Z,93725.90
2019-03-08T19:58:07.816Z,93722.47
2019-03-08T20:00:52.336Z,93731.48
2019-03-08T20:03:32.519Z,93732.35
2019-03-08T20:06:07.017Z,93738.70
2019-03-08T20:08:53.467Z,93749.37
2019-03-08T20:11:28.080Z,93754.63
2019-03-08T20:14:17.153Z,93758.87
2019-03-08T20:16:51.749Z,93758.91
2019-03-08T20:19:35.371Z,93764.04
2019-03-08T20:22:16.172Z,93782.73
2019-03-08T20:24:56.235Z,93782.08
2019-03-08T20:27:29.330Z,93781.39
2019-03-08T20:30:19.838Z,93791.69
2019-03-08T20:33:03.941Z,93784.39
2019-03-08T20:35:36.557Z,93788.16
2019-03-08T20:38:11.033Z,93791.91
2019-03-08T20:40:48.374Z,93799.45
2019-03-08T20:43:32.339Z,93799.15
2019-03-08T20:46:06.869Z,93796.79
2019-03-08T20:48:39.653Z,93808.53
2019-03-08T20:51:14.353Z,93809.28
2019-03-08T20:53:47.191Z,93805.67
2019-03-08T20:56:20.143Z,93810.11
2019-03-08T20:58:53.009Z,93803.09
2019-03-08T21:01:26.357Z,93813.71
2019-03-08T21:03:59.153Z,93815.05
2019-03-08T21:06:32.142Z,93823.55
2019-03-08T21:09:05.130Z,93821.60
2019-03-08T21:11:37.935Z,93818.83
2019-03-08T21:14:10.930Z,93826.70
2019-03-08T21:16:44.157Z,93825.55
2019-03-08T21:19:17.220Z,93826.42
2019-03-08T21:21:50.179Z,93824.52
2019-03-08T21:24:22.981Z,93831.32
2019-03-08T21:26:55.885Z,93830.95
2019-03-08T21:29:28.953Z,93824.66
2019-03-08T21:32:01.793Z,93824.09
2019-03-08T21:34:34.628Z,93830.77
2019-03-08T21:37:07.397Z,93829.06
2019-03-08T21:39:40.327Z,93818.75
2019-03-08T21:42:13.395Z,93824.02
2019-03-08T21:44:46.386Z,93827.47
2019-03-08T21:47:19.573Z,93853.05
2019-03-08T21:49:52.432Z,93832.28
2019-03-08T21:52:25.943Z,93839.16
2019-03-08T21:54:58.849Z,93832.28
2019-03-08T21:57:31.674Z,93827.46
2019-03-08T22:00:04.531Z,93830.81
2019-03-08T22:02:37.430Z,93839.06
2019-03-08T22:05:10.551Z,93832.28
2019-03-08T22:07:43.798Z,93833.92
2019-03-08T22:10:21.232Z,93830.41
2019-03-08T22:12:54.107Z,93832.56
2019-03-08T22:15:27.076Z,93816.84
2019-03-08T22:18:00.470Z,93811.15
2019-03-08T22:20:33.491Z,93816.12
2019-03-08T22:23:06.571Z,93812.91
2019-03-08T22:25:39.428Z,93809.22
2019-03-08T22:28:12.237Z,93804.23
2019-03-08T22:30:45.004Z,93807.55
2019-03-08T22:33:17.941Z,93805.47
2019-03-08T22:35:50.868Z,93799.66
2019-03-08T22:38:24.347Z,93811.43
2019-03-08T22:40:57.160Z,93813.09
2019-03-08T22:43:30.067Z,93819.84
2019-03-08T22:46:02.871Z,93813.27
2019-03-08T22:48:35.663Z,93811.50
2019-03-08T22:51:08.479Z,93813.08
2019-03-08T22:53:41.279Z,93812.94
2019-03-08T22:56:14.276Z,93816.58
2019-03-08T22:58:47.190Z,93817.04
2019-03-08T23:01:20.389Z,93820.30
2019-03-08T23:03:53.089Z,93831.07
2019-03-08T23:06:26.209Z,93827.77
2019-03-08T23:08:58.982Z,93834.80
2019-03-08T23:11:32.077Z,93829.23
2019-03-08T23:14:04.918Z,93830.77
2019-03-08T23:16:37.829Z,93839.03
2019-03-08T23:19:10.974Z,93831.41
2019-03-08T23:21:43.949Z,93832.00
2019-03-08T23:24:16.742Z,93823.52
2019-03-08T23:26:51.277Z,93825.99
2019-03-08T23:29:25.707Z,93824.94
2019-03-08T23:32:03.187Z,93822.79
2019-03-08T23:34:36.667Z,93819.20
2019-03-08T23:37:09.967Z,93822.59
2019-03-08T23:39:42.927Z,93826.47
2019-03-08T23:42:15.887Z,93824.08
2019-03-08T23:44:49.009Z,93825.11
2019-03-08T23:47:23.968Z,93824.47
2019-03-08T23:49:56.898Z,93824.11
2019-03-08T23:52:30.667Z,93829.27
2019-03-08T23:55:04.388Z,93823.11
2019-03-08T23:57:37.308Z,93826.79
